Mandarin Grace — 9V8352 — position and weather

sailwx.info

Track history (hours):
 
Tides and Currents Weather Stations Pressure Air Temp Water Temp Dewpoint Dewpoint Depression Visibility Wind Speed Wind Dir Waves Ship Positions

Mandarin Grace

Last reported at 2014-Sep-07 21:08 UTC. Time now 2014-Sep-19 17:54 UTC.
Position N 25°39' W 079°34'.
Warning: this ship's position is 11 days out of date.

Length 190 m; draft 12.2 m.

Type: Cargo ship. MMSI: 563862000.

Date/timePositionNaut miles runAvg speedWind from/ knotsBaromVisibWave heightAir tempDewpointWater temp
2014-Sep-07 21:08N 25°39' W 079°34'6 9.7
2014-Sep-07 20:33N 25°45' W 079°34'10 9.8
2014-Sep-07 19:33N 25°54' W 079°32'9 9.4
2014-Sep-07 18:33N 26°03' W 079°30'1010.4
2014-Sep-07 17:33N 26°10' W 079°20'  
2014-Aug-29 23:31N 37°12' W 032°35'1411.3
2014-Aug-29 22:18N 37°13' W 032°18'911.3
2014-Aug-29 21:33N 37°13' W 032°07'1111.6
2014-Aug-29 20:33N 37°13' W 031°53'1111.5
2014-Aug-29 19:33N 37°14' W 031°39'1211.6
2014-Aug-29 18:31N 37°14' W 031°23'1111.2
2014-Aug-29 17:30N 37°15' W 031°09'1110.9
2014-Aug-29 16:31N 37°15' W 030°56'1111.4
2014-Aug-29 15:32N 37°16' W 030°42'1111.5
2014-Aug-29 14:33N 37°16' W 030°28'1111.1
2014-Aug-29 13:33N 37°17' W 030°14'1111.3
2014-Aug-29 12:34N 37°18' W 029°60'1111.0
2014-Aug-29 11:33N 37°18' W 029°46'1111.0
2014-Aug-29 10:33N 37°19' W 029°32'1111.1
2014-Aug-29 09:33N 37°19' W 029°18'1111.4
2014-Aug-29 08:33N 37°19' W 029°03'1211.5
2014-Aug-29 07:33N 37°20' W 028°49'1211.6
2014-Aug-29 06:32N 37°21' W 028°34'1211.4
2014-Aug-29 05:29N 37°22' W 028°19'1011.2
2014-Aug-29 04:33N 37°22' W 028°06'1111.2
2014-Aug-29 03:33N 37°22' W 027°52'1111.2
2014-Aug-29 02:33N 37°22' W 027°38'1111.0
2014-Aug-29 01:33N 37°22' W 027°24'1111.3
2014-Aug-29 00:33N 37°22' W 027°09'1211.8
2014-Aug-28 23:34N 37°22' W 026°55'1212.0
2014-Aug-28 22:33N 37°22' W 026°40'1312.8
2014-Aug-28 21:33N 37°21' W 026°23'  
Track history (hours):
 
Tides and Currents Weather Stations Pressure Air Temp Water Temp Dewpoint Dewpoint Depression Visibility Wind Speed Wind Dir Waves Ship Positions

Mandarin Grace

Last reported at 2014-Sep-07 21:08 UTC. Time now 2014-Sep-19 17:54 UTC.
Position N 25°39' W 079°34'.
Warning: this ship's position is 11 days out of date.

Length 190 m; draft 12.2 m.

Type: Cargo ship. MMSI: 563862000.

Date/timePositionNaut miles runAvg speedWind from/ knotsBaromVisibWave heightAir tempDewpointWater temp
2014-Sep-07 21:08N 25°39' W 079°34'6 9.7
2014-Sep-07 20:33N 25°45' W 079°34'10 9.8
2014-Sep-07 19:33N 25°54' W 079°32'9 9.4
2014-Sep-07 18:33N 26°03' W 079°30'1010.4
2014-Sep-07 17:33N 26°10' W 079°20'  
2014-Aug-29 23:31N 37°12' W 032°35'1411.3
2014-Aug-29 22:18N 37°13' W 032°18'911.3
2014-Aug-29 21:33N 37°13' W 032°07'1111.6
2014-Aug-29 20:33N 37°13' W 031°53'1111.5
2014-Aug-29 19:33N 37°14' W 031°39'1211.6
2014-Aug-29 18:31N 37°14' W 031°23'1111.2
2014-Aug-29 17:30N 37°15' W 031°09'1110.9
2014-Aug-29 16:31N 37°15' W 030°56'1111.4
2014-Aug-29 15:32N 37°16' W 030°42'1111.5
2014-Aug-29 14:33N 37°16' W 030°28'1111.1
2014-Aug-29 13:33N 37°17' W 030°14'1111.3
2014-Aug-29 12:34N 37°18' W 029°60'1111.0
2014-Aug-29 11:33N 37°18' W 029°46'1111.0
2014-Aug-29 10:33N 37°19' W 029°32'1111.1
2014-Aug-29 09:33N 37°19' W 029°18'1111.4
2014-Aug-29 08:33N 37°19' W 029°03'1211.5
2014-Aug-29 07:33N 37°20' W 028°49'1211.6
2014-Aug-29 06:32N 37°21' W 028°34'1211.4
2014-Aug-29 05:29N 37°22' W 028°19'1011.2
2014-Aug-29 04:33N 37°22' W 028°06'1111.2
2014-Aug-29 03:33N 37°22' W 027°52'1111.2
2014-Aug-29 02:33N 37°22' W 027°38'1111.0
2014-Aug-29 01:33N 37°22' W 027°24'1111.3
2014-Aug-29 00:33N 37°22' W 027°09'1211.8
2014-Aug-28 23:34N 37°22' W 026°55'1212.0
2014-Aug-28 22:33N 37°22' W 026°40'1312.8
2014-Aug-28 21:33N 37°21' W 026°23'  

Dump ship's entire track history